createdAt,value
2018-03-02T00:01:10.203Z,21.13
2018-03-02T00:03:44.457Z,22.97
2018-03-02T00:06:18.326Z,23.73
2018-03-02T00:08:52.373Z,22.80
2018-03-02T00:11:26.169Z,22.67
2018-03-02T00:14:00.887Z,21.73
2018-03-02T00:16:34.888Z,24.03
2018-03-02T00:19:09.435Z,22.97
2018-03-02T00:21:43.537Z,24.10
2018-03-02T00:24:18.261Z,23.07
2018-03-02T00:26:52.245Z,22.60
2018-03-02T00:29:26.897Z,23.23
2018-03-02T00:32:00.761Z,23.87
2018-03-02T00:34:36.239Z,24.50
2018-03-02T00:37:10.270Z,23.30
2018-03-02T00:39:44.168Z,23.73
2018-03-02T00:42:18.034Z,24.10
2018-03-02T00:44:52.994Z,23.87
2018-03-02T00:47:27.631Z,22.87
2018-03-02T00:50:02.554Z,22.97
2018-03-02T00:52:36.413Z,23.70
2018-03-02T00:55:10.338Z,22.73
2018-03-02T00:57:45.161Z,24.20
2018-03-02T01:00:20.663Z,22.40
2018-03-02T01:02:55.135Z,23.40
2018-03-02T01:05:28.808Z,23.03
2018-03-02T01:08:03.001Z,23.77
2018-03-02T01:10:36.818Z,24.17
2018-03-02T01:13:11.601Z,23.87
2018-03-02T01:15:46.572Z,24.37
2018-03-02T01:18:21.549Z,21.53
2018-03-02T01:20:55.639Z,23.73
2018-03-02T01:23:29.577Z,23.77
2018-03-02T01:26:03.784Z,22.97
2018-03-02T01:28:37.486Z,24.07
2018-03-02T01:31:11.376Z,23.50
2018-03-02T01:33:46.069Z,24.00
2018-03-02T01:36:20.210Z,24.60
2018-03-02T01:38:54.295Z,24.27
2018-03-02T01:41:28.193Z,24.67
2018-03-02T01:44:02.111Z,24.30
2018-03-02T01:46:36.317Z,25.63
2018-03-02T01:49:10.263Z,24.67
2018-03-02T01:51:50.083Z,24.70
2018-03-02T01:54:23.741Z,23.53
2018-03-02T01:56:58.181Z,23.83
2018-03-02T01:59:32.109Z,23.10
2018-03-02T02:02:06.725Z,24.53
2018-03-02T02:04:41.631Z,24.33
2018-03-02T02:07:15.819Z,24.50
2018-03-02T02:09:49.666Z,24.00
2018-03-02T02:12:23.457Z,24.30
2018-03-02T02:14:58.177Z,24.80
2018-03-02T02:17:32.339Z,24.53
2018-03-02T02:20:06.635Z,24.60
2018-03-02T02:22:41.145Z,24.23
2018-03-02T02:25:14.977Z,24.30
2018-03-02T02:27:49.180Z,24.63
2018-03-02T02:30:23.680Z,24.80
2018-03-02T02:32:57.952Z,24.23
2018-03-02T02:35:31.714Z,23.53
2018-03-02T02:38:05.365Z,23.40
2018-03-02T02:40:39.173Z,22.60
2018-03-02T02:43:14.379Z,23.47
2018-03-02T02:45:49.685Z,23.57
2018-03-02T02:48:23.610Z,23.13
2018-03-02T02:50:58.212Z,23.60
2018-03-02T02:53:33.287Z,24.00
2018-03-02T02:56:06.990Z,22.60
2018-03-02T02:58:41.028Z,24.47
2018-03-02T03:01:14.889Z,23.23
2018-03-02T03:03:49.809Z,22.97
2018-03-02T03:06:23.541Z,24.17
2018-03-02T03:08:58.155Z,22.93
2018-03-02T03:11:33.989Z,23.03
2018-03-02T03:14:08.382Z,23.60
2018-03-02T03:16:43.853Z,23.10
2018-03-02T03:19:18.041Z,23.17
2018-03-02T03:21:51.903Z,23.90
2018-03-02T03:24:26.251Z,21.73
2018-03-02T03:27:01.019Z,24.63
2018-03-02T03:29:35.503Z,23.43
2018-03-02T03:32:10.127Z,22.97
2018-03-02T03:34:45.786Z,24.43
2018-03-02T03:37:20.308Z,22.63
2018-03-02T03:39:54.355Z,23.50
2018-03-02T03:42:28.021Z,22.47
2018-03-02T03:45:01.932Z,22.70
2018-03-02T03:47:36.822Z,22.70
2018-03-02T03:50:11.334Z,23.97
2018-03-02T03:52:45.774Z,22.13
2018-03-02T03:55:20.282Z,23.83
2018-03-02T03:57:54.413Z,23.07
2018-03-02T04:00:29.147Z,23.57
2018-03-02T04:03:03.331Z,21.57
2018-03-02T04:05:37.042Z,23.33
2018-03-02T04:08:10.749Z,23.00
2018-03-02T04:10:45.215Z,22.50
2018-03-02T04:13:19.166Z,22.67
2018-03-02T04:15:53.793Z,21.53
2018-03-02T04:18:27.961Z,22.40
2018-03-02T04:21:01.690Z,23.33
2018-03-02T04:23:35.381Z,22.63
2018-03-02T04:26:09.149Z,22.70
2018-03-02T04:28:43.039Z,22.30
2018-03-02T04:31:17.549Z,22.43
2018-03-02T04:33:52.262Z,23.33
2018-03-02T04:36:26.388Z,23.77
2018-03-02T04:39:00.355Z,22.37
2018-03-02T04:41:34.382Z,22.77
2018-03-02T04:44:08.827Z,23.10
2018-03-02T04:46:43.002Z,23.50
2018-03-02T04:49:17.639Z,22.73
2018-03-02T04:51:52.102Z,22.80
2018-03-02T04:54:26.817Z,22.73
2018-03-02T04:57:01.559Z,22.50
2018-03-02T04:59:36.666Z,23.63
2018-03-02T05:02:11.922Z,22.57
2018-03-02T05:04:46.265Z,22.30
2018-03-02T05:07:20.188Z,22.73
2018-03-02T05:09:53.871Z,23.07
2018-03-02T05:12:27.729Z,23.90
2018-03-02T05:15:01.691Z,23.70
2018-03-02T05:17:35.495Z,24.13
2018-03-02T05:20:10.293Z,22.67
2018-03-02T05:22:44.025Z,22.37
2018-03-02T05:25:18.613Z,23.00
2018-03-02T05:27:52.677Z,22.80
2018-03-02T05:30:26.560Z,25.17
2018-03-02T05:33:00.937Z,21.43
2018-03-02T05:35:34.819Z,24.20
2018-03-02T05:38:09.915Z,22.57
2018-03-02T05:40:44.033Z,22.23
2018-03-02T05:43:18.865Z,22.23
2018-03-02T05:45:53.451Z,22.90
2018-03-02T05:48:27.585Z,22.77
2018-03-02T05:51:01.738Z,21.63
2018-03-02T05:53:35.547Z,22.43
2018-03-02T05:56:09.439Z,23.10
2018-03-02T05:58:44.162Z,23.73
2018-03-02T06:01:18.168Z,23.40
2018-03-02T06:03:52.129Z,22.70
2018-03-02T06:06:25.996Z,22.37
2018-03-02T06:09:00.005Z,22.57
2018-03-02T06:11:33.751Z,23.33
2018-03-02T06:14:09.346Z,23.47
2018-03-02T06:16:43.758Z,24.37
2018-03-02T06:19:18.687Z,24.67
2018-03-02T06:21:52.668Z,23.10
2018-03-02T06:24:26.658Z,23.20
2018-03-02T06:27:00.490Z,22.60
2018-03-02T06:29:34.264Z,22.23
2018-03-02T06:32:08.015Z,21.93
2018-03-02T06:34:42.654Z,24.67
2018-03-02T06:37:17.483Z,23.63
2018-03-02T06:39:51.530Z,23.30
2018-03-02T06:42:25.273Z,24.40
2018-03-02T06:44:59.141Z,24.97
2018-03-02T06:47:33.785Z,23.67
2018-03-02T06:50:08.237Z,24.00
2018-03-02T06:52:42.584Z,24.47
2018-03-02T06:55:16.477Z,24.33
2018-03-02T06:57:50.713Z,25.07
2018-03-02T07:00:25.302Z,23.47
2018-03-02T07:03:00.105Z,25.60
2018-03-02T07:05:34.215Z,24.33
2018-03-02T07:08:08.029Z,23.97
2018-03-02T07:10:41.711Z,24.23
2018-03-02T07:13:15.460Z,25.80
2018-03-02T07:15:49.265Z,24.27
2018-03-02T07:18:23.079Z,23.67
2018-03-02T07:20:56.918Z,23.70
2018-03-02T07:23:31.466Z,24.53
2018-03-02T07:26:05.460Z,24.03
2018-03-02T07:28:39.649Z,24.23
2018-03-02T07:31:14.072Z,24.97
2018-03-02T07:33:48.728Z,24.20
2018-03-02T07:36:22.888Z,26.73
2018-03-02T07:38:57.573Z,28.33
2018-03-02T07:41:31.933Z,26.20
2018-03-02T07:44:06.040Z,26.07
2018-03-02T07:46:41.324Z,28.10
2018-03-02T07:49:15.401Z,26.20
2018-03-02T07:51:50.223Z,27.87
2018-03-02T07:54:24.224Z,29.17
2018-03-02T07:56:58.143Z,26.90
2018-03-02T07:59:32.110Z,27.33
2018-03-02T08:02:06.004Z,27.73
2018-03-02T08:04:39.952Z,25.77
2018-03-02T08:07:13.667Z,26.43
2018-03-02T08:09:47.712Z,26.73
2018-03-02T08:12:21.642Z,25.60
2018-03-02T08:14:55.431Z,25.67
2018-03-02T08:17:30.138Z,25.93
2018-03-02T08:20:05.054Z,25.33
2018-03-02T08:22:39.700Z,27.77
2018-03-02T08:25:13.791Z,26.20
2018-03-02T08:27:47.598Z,26.10
2018-03-02T08:30:23.038Z,26.53
2018-03-02T08:32:57.949Z,25.23
2018-03-02T08:35:31.995Z,26.77
2018-03-02T08:38:05.832Z,27.27
2018-03-02T08:40:39.716Z,26.30
2018-03-02T08:43:14.940Z,25.50
2018-03-02T08:45:49.733Z,27.53
2018-03-02T08:48:23.945Z,26.10
2018-03-02T08:50:57.704Z,27.20
2018-03-02T08:53:31.534Z,26.23
2018-03-02T08:56:06.921Z,26.17
2018-03-02T08:58:40.872Z,24.73
2018-03-02T09:01:14.497Z,28.00
2018-03-02T09:03:48.577Z,26.20
2018-03-02T09:06:23.049Z,26.60
2018-03-02T09:08:57.191Z,25.43
2018-03-02T09:11:31.009Z,27.20
2018-03-02T09:14:05.027Z,24.83
2018-03-02T09:16:38.831Z,25.40
2018-03-02T09:19:14.260Z,24.87
2018-03-02T09:21:48.290Z,24.90
2018-03-02T09:24:22.910Z,25.20
2018-03-02T09:26:57.019Z,26.00
2018-03-02T09:29:31.742Z,26.00
2018-03-02T09:32:05.673Z,26.43
2018-03-02T09:34:39.433Z,26.43
2018-03-02T09:37:13.276Z,25.87
2018-03-02T09:39:47.314Z,25.07
2018-03-02T09:42:21.852Z,26.00
2018-03-02T09:44:55.927Z,26.63
2018-03-02T09:47:29.680Z,26.73
2018-03-02T09:50:04.742Z,25.07
2018-03-02T09:52:39.762Z,25.50
2018-03-02T09:55:13.774Z,25.90
2018-03-02T09:57:47.489Z,26.70
2018-03-02T10:00:22.126Z,27.10
2018-03-02T10:02:57.110Z,26.47
2018-03-02T10:05:31.748Z,25.87
2018-03-02T10:08:05.781Z,26.17
2018-03-02T10:10:39.613Z,24.77
2018-03-02T10:13:13.461Z,26.73
2018-03-02T10:15:48.664Z,26.57
2018-03-02T10:18:22.733Z,26.90
2018-03-02T10:20:56.805Z,26.73
2018-03-02T10:23:31.253Z,26.47
2018-03-02T10:26:05.470Z,25.87
2018-03-02T10:28:39.278Z,26.60
2018-03-02T10:31:13.246Z,25.43
2018-03-02T10:33:47.705Z,26.57
2018-03-02T10:36:21.762Z,26.40
2018-03-02T10:38:55.576Z,25.23
2018-03-02T10:41:30.230Z,28.17
2018-03-02T10:44:04.195Z,30.37
2018-03-02T10:46:38.052Z,26.23
2018-03-02T10:49:11.875Z,26.23
2018-03-02T10:51:45.736Z,25.73
2018-03-02T10:54:19.441Z,26.03
2018-03-02T10:56:53.241Z,25.87
2018-03-02T10:59:27.866Z,26.17
2018-03-02T11:02:07.086Z,27.53
2018-03-02T11:04:46.973Z,26.73
2018-03-02T11:07:21.613Z,26.50
2018-03-02T11:09:55.251Z,28.13
2018-03-02T11:12:29.295Z,26.90
2018-03-02T11:15:03.049Z,26.60
2018-03-02T11:17:37.725Z,27.40
2018-03-02T11:20:12.052Z,28.33
2018-03-02T11:22:46.622Z,32.58
2018-03-02T11:25:21.686Z,29.87
2018-03-02T11:27:55.776Z,36.88
2018-03-02T11:30:30.375Z,30.23
2018-03-02T11:33:04.526Z,28.63
2018-03-02T11:35:39.251Z,28.27
2018-03-02T11:38:13.394Z,30.17
2018-03-02T11:40:48.865Z,31.97
2018-03-02T11:43:22.909Z,33.93
2018-03-02T11:45:57.128Z,33.77
2018-03-02T11:48:31.058Z,32.27
2018-03-02T11:51:04.909Z,39.37
2018-03-02T11:53:38.903Z,31.73
2018-03-02T11:56:12.690Z,28.83
2018-03-02T11:58:48.199Z,28.60
2018-03-02T12:01:22.502Z,29.17
2018-03-02T12:03:57.435Z,29.30
2018-03-02T12:06:31.478Z,28.50
2018-03-02T12:09:06.178Z,27.13
2018-03-02T12:11:40.360Z,28.80
2018-03-02T12:14:14.329Z,28.93
2018-03-02T12:16:48.921Z,29.57
2018-03-02T12:19:22.789Z,27.43
2018-03-02T12:21:57.436Z,27.27
2018-03-02T12:24:31.475Z,29.07
2018-03-02T12:27:05.511Z,27.40
2018-03-02T12:29:40.318Z,29.37
2018-03-02T12:32:14.353Z,29.67
2018-03-02T12:34:49.080Z,28.73
2018-03-02T12:37:23.121Z,28.87
2018-03-02T12:39:57.314Z,29.17
2018-03-02T12:42:31.188Z,26.77
2018-03-02T12:45:05.294Z,28.23
2018-03-02T12:47:39.029Z,27.63
2018-03-02T12:50:13.463Z,28.20
2018-03-02T12:52:47.982Z,27.30
2018-03-02T12:55:21.759Z,29.70
2018-03-02T12:57:56.277Z,29.60
2018-03-02T13:00:30.334Z,30.37
2018-03-02T13:03:04.595Z,28.87
2018-03-02T13:05:39.161Z,30.53
2018-03-02T13:08:14.462Z,30.70
2018-03-02T13:10:48.638Z,29.97
2018-03-02T13:13:22.573Z,29.40
2018-03-02T13:15:56.702Z,29.17
2018-03-02T13:18:43.066Z,29.33
2018-03-02T13:21:18.033Z,31.37
2018-03-02T13:23:52.028Z,27.90
2018-03-02T13:26:38.524Z,27.87
2018-03-02T13:29:12.584Z,30.00
2018-03-02T13:31:47.267Z,31.67
2018-03-02T13:34:33.797Z,29.40
2018-03-02T13:37:07.920Z,31.43
2018-03-02T13:42:46.086Z,30.50
2018-03-02T13:45:19.953Z,28.47
2018-03-02T13:51:08.604Z,29.23
2018-03-02T13:53:43.345Z,29.03
2018-03-02T13:56:29.202Z,27.93
2018-03-02T13:59:03.042Z,28.10
2018-03-02T14:01:37.420Z,27.90
2018-03-02T14:04:23.357Z,33.40
2018-03-02T14:06:57.161Z,31.57
2018-03-02T14:09:31.877Z,27.87
2018-03-02T14:12:05.685Z,31.70
2018-03-02T14:14:40.266Z,30.03
2018-03-02T14:17:14.313Z,30.80
2018-03-02T14:19:48.255Z,29.30
2018-03-02T14:22:22.209Z,29.43
2018-03-02T14:24:56.171Z,30.27
2018-03-02T14:27:30.644Z,27.60
2018-03-02T14:30:05.385Z,28.33
2018-03-02T14:32:39.818Z,28.60
2018-03-02T14:35:13.693Z,27.60
2018-03-02T14:37:47.536Z,27.33
2018-03-02T14:40:21.548Z,31.43
2018-03-02T14:42:55.261Z,30.33
2018-03-02T14:45:29.071Z,26.07
2018-03-02T14:48:03.046Z,28.40
2018-03-02T14:50:37.757Z,28.30
2018-03-02T14:53:12.604Z,30.03
2018-03-02T14:55:46.432Z,30.70
2018-03-02T14:58:20.224Z,29.00
2018-03-02T15:00:53.981Z,28.57
2018-03-02T15:03:27.645Z,29.63
2018-03-02T15:06:01.297Z,28.57
2018-03-02T15:08:35.539Z,30.40
2018-03-02T15:11:09.763Z,30.83
2018-03-02T15:13:43.517Z,30.17
2018-03-02T15:16:17.290Z,29.33
2018-03-02T15:18:51.093Z,31.97
2018-03-02T15:21:24.898Z,29.50
2018-03-02T15:23:58.709Z,30.10
2018-03-02T15:26:32.710Z,29.73
2018-03-02T15:29:07.485Z,27.77
2018-03-02T15:31:41.950Z,29.27
2018-03-02T15:34:16.425Z,29.43
2018-03-02T15:36:50.648Z,28.03
2018-03-02T15:39:24.532Z,29.73
2018-03-02T15:41:58.330Z,29.73
2018-03-02T15:44:33.069Z,28.43
2018-03-02T15:47:07.035Z,28.63
2018-03-02T15:49:40.745Z,28.97
2018-03-02T15:52:14.909Z,30.07
2018-03-02T15:54:49.308Z,31.67
2018-03-02T15:57:23.290Z,28.63
2018-03-02T15:59:57.253Z,29.00
2018-03-02T16:02:32.009Z,29.10
2018-03-02T16:05:06.327Z,28.63
2018-03-02T16:07:40.894Z,27.17
2018-03-02T16:10:14.750Z,30.23
2018-03-02T16:12:49.452Z,29.27
2018-03-02T16:15:23.997Z,28.77
2018-03-02T16:20:55.807Z,27.47
2018-03-02T16:23:29.726Z,31.77
2018-03-02T16:26:04.363Z,29.90
2018-03-02T16:28:38.341Z,29.43
2018-03-02T16:31:13.246Z,33.17
2018-03-02T16:33:47.521Z,29.80
2018-03-02T16:36:21.126Z,30.33
2018-03-02T16:38:54.864Z,29.87
2018-03-02T16:41:29.450Z,30.53
2018-03-02T16:44:03.945Z,30.53
2018-03-02T16:46:38.756Z,30.50
2018-03-02T16:49:14.334Z,30.10
2018-03-02T16:51:48.515Z,29.10
2018-03-02T16:54:22.237Z,32.30
2018-03-02T16:56:56.142Z,31.70
2018-03-02T16:59:30.767Z,32.80
2018-03-02T17:02:05.469Z,31.97
2018-03-02T17:04:39.537Z,33.67
2018-03-02T17:07:13.181Z,32.60
2018-03-02T17:09:48.045Z,38.73
2018-03-02T17:12:21.892Z,38.03
2018-03-02T17:14:55.757Z,34.10
2018-03-02T17:17:29.767Z,32.90
2018-03-02T17:20:04.727Z,33.93
2018-03-02T17:22:40.130Z,33.10
2018-03-02T17:25:14.176Z,34.20
2018-03-02T17:27:48.050Z,34.30
2018-03-02T17:30:22.777Z,34.30
2018-03-02T17:32:56.804Z,32.30
2018-03-02T17:35:30.539Z,34.17
2018-03-02T17:38:05.190Z,33.67
2018-03-02T17:40:39.322Z,38.10
2018-03-02T17:43:13.586Z,36.67
2018-03-02T17:45:47.849Z,36.37
2018-03-02T17:48:21.578Z,35.80
2018-03-02T17:50:55.433Z,36.27
2018-03-02T17:53:29.600Z,34.27
2018-03-02T17:56:03.429Z,39.90
2018-03-02T17:58:37.262Z,40.57
2018-03-02T18:01:11.833Z,39.80
2018-03-02T18:03:45.565Z,39.47
2018-03-02T18:06:19.521Z,41.70
2018-03-02T18:08:53.238Z,39.70
2018-03-02T18:11:27.780Z,39.47
2018-03-02T18:14:01.668Z,39.97
2018-03-02T18:16:36.293Z,41.60
2018-03-02T18:19:10.277Z,41.77
2018-03-02T18:21:44.024Z,40.27
2018-03-02T18:24:17.762Z,40.13
2018-03-02T18:26:52.422Z,42.23
2018-03-02T18:29:26.371Z,39.00
2018-03-02T18:32:01.103Z,40.50
2018-03-02T18:34:34.901Z,38.97
2018-03-02T18:37:08.872Z,38.57
2018-03-02T18:39:43.477Z,39.00
2018-03-02T18:42:17.560Z,40.47
2018-03-02T18:44:52.017Z,40.23
2018-03-02T18:47:25.939Z,40.20
2018-03-02T18:50:00.338Z,39.57
2018-03-02T18:52:34.320Z,41.60
2018-03-02T18:55:08.218Z,42.10
2018-03-02T18:57:42.006Z,44.53
2018-03-02T19:00:16.580Z,42.43
2018-03-02T19:02:50.601Z,44.00
2018-03-02T19:05:24.425Z,42.27
2018-03-02T19:07:59.677Z,43.63
2018-03-02T19:10:34.129Z,44.37
2018-03-02T19:13:08.073Z,43.10
2018-03-02T19:15:42.837Z,43.70
2018-03-02T19:18:16.686Z,47.03
2018-03-02T19:20:50.357Z,41.07
2018-03-02T19:23:26.188Z,42.00
2018-03-02T19:26:00.323Z,42.37
2018-03-02T19:28:35.696Z,40.83
2018-03-02T19:31:16.228Z,42.77
2018-03-02T19:33:51.443Z,42.93
2018-03-02T19:36:27.202Z,41.07
2018-03-02T19:39:05.372Z,42.47
2018-03-02T19:41:39.291Z,46.97
2018-03-02T19:44:15.371Z,42.17
2018-03-02T19:46:51.863Z,44.60
2018-03-02T19:49:26.597Z,45.00
2018-03-02T19:52:01.415Z,45.50
2018-03-02T19:54:36.175Z,45.23
2018-03-02T19:57:10.955Z,46.23
2018-03-02T19:59:47.241Z,51.87
2018-03-02T20:02:23.090Z,44.83
2018-03-02T20:04:56.822Z,44.60
2018-03-02T20:07:32.715Z,45.03
2018-03-02T20:10:08.031Z,44.17
2018-03-02T20:12:43.564Z,45.10
2018-03-02T20:15:19.621Z,45.27
2018-03-02T20:17:54.313Z,42.77
2018-03-02T20:20:29.380Z,43.10
2018-03-02T20:23:04.693Z,43.37
2018-03-02T20:25:39.708Z,43.23
2018-03-02T20:28:16.690Z,43.37
2018-03-02T20:30:52.090Z,41.90
2018-03-02T20:33:27.792Z,43.63
2018-03-02T20:36:04.579Z,43.47
2018-03-02T20:38:38.937Z,43.70
2018-03-02T20:41:16.113Z,45.63
2018-03-02T20:43:52.160Z,43.73
2018-03-02T20:46:28.900Z,44.03
2018-03-02T20:49:06.647Z,43.43
2018-03-02T20:51:41.548Z,44.57
2018-03-02T20:54:15.448Z,43.13
2018-03-02T20:56:51.718Z,44.90
2018-03-02T20:59:27.353Z,45.43
2018-03-02T21:02:03.388Z,45.30
2018-03-02T21:04:38.845Z,44.20
2018-03-02T21:07:13.209Z,43.83
2018-03-02T21:12:29.392Z,45.63
2018-03-02T21:15:03.221Z,43.60
2018-03-02T21:17:38.364Z,44.67
2018-03-02T21:20:12.591Z,44.30
2018-03-02T21:22:47.377Z,45.43
2018-03-02T21:25:21.369Z,44.27
2018-03-02T21:27:55.285Z,43.80
2018-03-02T21:30:29.900Z,43.63
2018-03-02T21:33:04.001Z,45.17
2018-03-02T21:35:39.446Z,44.17
2018-03-02T21:38:13.501Z,44.53
2018-03-02T21:40:47.209Z,42.97
2018-03-02T21:43:21.021Z,42.87
2018-03-02T21:45:54.832Z,43.53
2018-03-02T21:48:28.598Z,46.20
2018-03-02T21:51:02.328Z,43.83
2018-03-02T21:53:35.967Z,44.87
2018-03-02T21:56:09.822Z,44.43
2018-03-02T21:58:43.634Z,42.93
2018-03-02T22:01:19.037Z,44.00
2018-03-02T22:03:52.994Z,44.83
2018-03-02T22:06:27.457Z,45.33
2018-03-02T22:09:01.518Z,44.07
2018-03-02T22:11:35.912Z,46.23
2018-03-02T22:14:10.065Z,44.53
2018-03-02T22:16:45.481Z,43.87
2018-03-02T22:19:19.223Z,46.30
2018-03-02T22:21:52.961Z,45.67
2018-03-02T22:24:26.889Z,47.97
2018-03-02T22:27:00.514Z,45.90
2018-03-02T22:29:36.932Z,45.90
2018-03-02T22:32:10.873Z,46.17
2018-03-02T22:34:45.499Z,46.07
2018-03-02T22:37:19.519Z,45.67
2018-03-02T22:39:54.046Z,47.30
2018-03-02T22:42:28.646Z,49.10
2018-03-02T22:45:03.387Z,47.77
2018-03-02T22:47:37.353Z,47.47
2018-03-02T22:50:12.344Z,46.73
2018-03-02T22:52:46.662Z,47.73
2018-03-02T22:55:20.551Z,49.10
2018-03-02T22:57:54.239Z,46.43
2018-03-02T23:00:28.076Z,47.53
2018-03-02T23:03:02.584Z,45.80
2018-03-02T23:05:36.641Z,44.33
2018-03-02T23:08:10.466Z,45.53
2018-03-02T23:10:45.149Z,44.97
2018-03-02T23:13:18.846Z,45.60
2018-03-02T23:15:53.435Z,42.87
2018-03-02T23:18:27.209Z,44.20
2018-03-02T23:21:01.936Z,43.77
2018-03-02T23:23:35.669Z,43.90
2018-03-02T23:26:09.402Z,44.20
2018-03-02T23:28:43.933Z,44.40
2018-03-02T23:31:18.466Z,44.17
2018-03-02T23:33:52.362Z,46.80
2018-03-02T23:36:26.302Z,45.37
2018-03-02T23:39:00.820Z,44.47
2018-03-02T23:41:34.990Z,45.20
2018-03-02T23:44:08.795Z,44.87
2018-03-02T23:46:42.679Z,45.60
2018-03-02T23:49:16.863Z,44.87
2018-03-02T23:51:50.962Z,45.43
2018-03-02T23:54:26.155Z,42.43
2018-03-02T23:57:01.538Z,45.80
2018-03-02T23:59:36.009Z,45.23
